Time;durP1;ratioP1;P1;durP2;ratioP2;P2;SDS_P1;SDS_P2;PMS_P1;PMS_P2;Temp;Humidity;BMP_temperature;BMP_pressure;BME280_temperature;BME280_humidity;BME280_pressure;Samples;Min_cycle;Max_cycle;Signal;HPM_P1;HPM_P2
2022/07/09 00:01:58;;;;;;;0.30;0.22;;;15.20;99.90;;;;;;5001647;28;20045;-86
2022/07/09 00:04:24;;;;;;;0.45;0.45;;;15.20;99.90;;;;;;5017881;28;20049;-86
2022/07/09 00:06:50;;;;;;;0.10;0.10;;;15.10;99.90;;;;;;5017420;28;20399;-86
2022/07/09 00:09:15;;;;;;;0.08;0.08;;;15.20;99.90;;;;;;4985489;28;20048;-86
2022/07/09 00:11:41;;;;;;;3.15;0.30;;;15.20;99.90;;;;;;5017780;28;20484;-86
2022/07/09 00:14:07;;;;;;;0.10;0.10;;;15.10;99.90;;;;;;4985267;28;20052;-86
2022/07/09 00:16:33;;;;;;;1.08;0.45;;;15.20;99.90;;;;;;5001343;28;20045;-86
2022/07/09 00:18:58;;;;;;;0.20;0.20;;;15.20;99.90;;;;;;5001245;28;20052;-86
2022/07/09 00:21:24;;;;;;;0.10;0.10;;;15.40;99.90;;;;;;5017583;28;20045;-85
2022/07/09 00:23:50;;;;;;;0.17;0.17;;;15.50;99.90;;;;;;5017901;28;20123;-89
2022/07/09 00:26:15;;;;;;;0.20;0.20;;;15.50;99.90;;;;;;5001289;28;20041;-90
2022/07/09 00:28:41;;;;;;;0.10;0.10;;;15.60;99.90;;;;;;4985147;28;20052;-89
2022/07/09 00:31:07;;;;;;;0.55;0.55;;;15.70;99.90;;;;;;5001488;28;20415;-89
2022/07/09 00:33:33;;;;;;;0.10;0.10;;;15.80;99.90;;;;;;5001220;28;20100;-90
2022/07/09 00:35:59;;;;;;;0.22;0.22;;;15.80;99.90;;;;;;5001366;28;20030;-89
2022/07/09 00:38:24;;;;;;;0.10;0.10;;;15.90;99.90;;;;;;5000907;28;20419;-90
2022/07/09 00:40:50;;;;;;;0.25;0.20;;;15.60;99.90;;;;;;4984343;28;20509;-92
2022/07/09 00:43:18;;;;;;;0.00;0.00;;;16.00;99.90;;;;;;5012772;28;20041;-92
2022/07/09 00:45:45;;;;;;;0.35;0.32;;;16.10;99.90;;;;;;5012528;28;20045;-92
2022/07/09 00:48:11;;;;;;;0.10;0.08;;;16.00;99.90;;;;;;4968350;28;20116;-92
2022/07/09 00:50:38;;;;;;;0.00;0.00;;;16.10;99.90;;;;;;5000178;28;20038;-92
2022/07/09 00:53:05;;;;;;;0.10;0.10;;;16.10;99.90;;;;;;5000746;28;20522;-92
2022/07/09 00:55:31;;;;;;;0.10;0.10;;;16.10;99.90;;;;;;4985029;28;20430;-93
2022/07/09 00:57:57;;;;;;;0.47;0.32;;;16.20;99.90;;;;;;4994802;28;20049;-92
2022/07/09 01:00:23;;;;;;;0.10;0.10;;;16.20;99.90;;;;;;4964490;28;20061;-92
2022/07/09 01:02:49;;;;;;;0.00;0.00;;;16.10;99.90;;;;;;4999010;28;20045;-92
2022/07/09 01:05:15;;;;;;;0.10;0.10;;;16.20;99.90;;;;;;5000959;28;20387;-92
2022/07/09 01:07:41;;;;;;;0.65;0.50;;;16.20;99.90;;;;;;4984266;28;20050;-92
2022/07/09 01:10:07;;;;;;;0.75;0.75;;;16.20;99.90;;;;;;4999610;28;20077;-92
2022/07/09 01:12:33;;;;;;;1.65;0.55;;;16.20;99.90;;;;;;4999436;28;20045;-92
2022/07/09 01:14:58;;;;;;;3.83;1.17;;;16.20;99.90;;;;;;4992077;28;20034;-89
2022/07/09 01:17:24;;;;;;;0.05;0.05;;;16.10;99.90;;;;;;5000480;28;20041;-89
2022/07/09 01:19:50;;;;;;;0.10;0.10;;;16.10;99.90;;;;;;5000243;28;20048;-88
2022/07/09 01:22:15;;;;;;;0.10;0.10;;;16.10;99.90;;;;;;5016345;28;20041;-89
2022/07/09 01:24:41;;;;;;;0.03;0.03;;;16.10;99.90;;;;;;4984024;28;20045;-90
2022/07/09 01:27:07;;;;;;;0.47;0.47;;;16.10;99.90;;;;;;5016408;28;20041;-89
2022/07/09 01:29:34;;;;;;;0.28;0.28;;;16.10;99.90;;;;;;5016446;28;20052;-86
2022/07/09 01:31:59;;;;;;;0.10;0.10;;;16.00;99.90;;;;;;5015752;28;20037;-86
2022/07/09 01:34:25;;;;;;;1.45;0.73;;;16.00;99.90;;;;;;5016416;28;20490;-86
2022/07/09 01:36:51;;;;;;;0.10;0.10;;;16.00;99.90;;;;;;4999772;28;20029;-86
2022/07/09 01:39:17;;;;;;;0.80;0.20;;;16.00;99.90;;;;;;4999928;28;20095;-86
2022/07/09 01:41:42;;;;;;;0.30;0.30;;;15.90;99.90;;;;;;4999418;28;20037;-86
2022/07/09 01:44:08;;;;;;;0.00;0.00;;;15.90;99.90;;;;;;4999621;28;20045;-86
2022/07/09 01:46:35;;;;;;;0.38;0.38;;;15.90;99.90;;;;;;5016476;28;20041;-91
2022/07/09 01:49:01;;;;;;;0.10;0.10;;;15.90;99.90;;;;;;4999987;28;20076;-91
2022/07/09 01:51:26;;;;;;;0.20;0.20;;;15.90;99.90;;;;;;5016029;28;20469;-91
2022/07/09 01:53:52;;;;;;;0.00;0.00;;;15.90;99.90;;;;;;4999849;28;20068;-92
2022/07/09 01:56:18;;;;;;;0.30;0.30;;;15.90;99.90;;;;;;4967671;28;20044;-91
2022/07/09 01:58:44;;;;;;;0.00;0.00;;;15.90;99.90;;;;;;4967315;28;20069;-92
2022/07/09 02:01:11;;;;;;;0.20;0.20;;;15.90;99.90;;;;;;4999746;28;20098;-91
2022/07/09 02:03:36;;;;;;;0.10;0.10;;;15.80;99.90;;;;;;4999895;28;20450;-89
2022/07/09 02:06:02;;;;;;;0.30;0.30;;;15.80;99.90;;;;;;4999740;28;20041;-89
2022/07/09 02:08:28;;;;;;;0.20;0.20;;;15.80;99.90;;;;;;4983577;28;20049;-88
2022/07/09 02:10:54;;;;;;;0.43;0.25;;;15.80;99.90;;;;;;4983078;28;20381;-88
2022/07/09 02:13:20;;;;;;;0.00;0.00;;;14.80;99.90;;;;;;4983327;28;20052;-88
2022/07/09 02:15:46;;;;;;;3.53;0.52;;;15.70;99.90;;;;;;4983669;28;20070;-89
2022/07/09 02:18:12;;;;;;;0.68;0.68;;;15.70;99.90;;;;;;4983358;28;20495;-89
2022/07/09 02:20:38;;;;;;;0.00;0.00;;;15.70;99.90;;;;;;5016232;28;20072;-92
2022/07/09 02:23:04;;;;;;;0.20;0.20;;;15.70;99.90;;;;;;4999096;28;20462;-92
2022/07/09 02:25:29;;;;;;;0.00;0.00;;;15.70;99.90;;;;;;4999891;28;20480;-91
2022/07/09 02:27:55;;;;;;;1.95;1.08;;;15.70;99.90;;;;;;4999675;28;20472;-91
2022/07/09 02:30:21;;;;;;;0.10;0.10;;;15.70;99.90;;;;;;4999357;28;20496;-92
2022/07/09 02:32:46;;;;;;;0.05;0.05;;;15.80;99.90;;;;;;5015491;28;20065;-91
2022/07/09 02:35:12;;;;;;;0.15;0.15;;;15.50;99.90;;;;;;5013276;28;20124;-91
2022/07/09 02:37:38;;;;;;;0.10;0.10;;;15.90;99.90;;;;;;5035624;28;20433;-88
2022/07/09 02:40:05;;;;;;;0.20;0.20;;;16.00;99.90;;;;;;5035471;28;20044;-89
2022/07/09 02:42:31;;;;;;;0.10;0.10;;;;;;;;;;5034258;28;20044;-88
2022/07/09 02:44:57;;;;;;;0.00;0.00;;;18.10;99.90;;;;;;5015824;28;20046;-89
2022/07/09 02:47:23;;;;;;;0.00;0.00;;;16.20;99.90;;;;;;4999243;28;20052;-89
2022/07/09 02:49:48;;;;;;;1.60;1.50;;;16.20;99.90;;;;;;4999177;28;20081;-89
2022/07/09 02:52:14;;;;;;;0.10;0.10;;;16.20;99.90;;;;;;4999211;28;20124;-88
2022/07/09 02:54:40;;;;;;;0.85;0.85;;;16.10;99.90;;;;;;4998567;28;20502;-85
2022/07/09 02:57:06;;;;;;;0.00;0.00;;;16.10;99.90;;;;;;5016027;28;20052;-86
2022/07/09 02:59:31;;;;;;;0.30;0.30;;;16.00;99.90;;;;;;4982620;28;20067;-85
2022/07/09 03:01:57;;;;;;;0.00;0.00;;;15.90;99.90;;;;;;4999287;28;20049;-85
2022/07/09 03:04:23;;;;;;;0.00;0.00;;;15.90;99.90;;;;;;4981959;28;20084;-85
2022/07/09 03:06:48;;;;;;;0.10;0.10;;;15.80;99.90;;;;;;4998984;28;20049;-85
2022/07/09 03:09:14;;;;;;;0.10;0.10;;;15.80;99.90;;;;;;4998723;28;20043;-85
2022/07/09 03:11:40;;;;;;;0.00;0.00;;;15.70;99.90;;;;;;5015382;28;20033;-86
2022/07/09 03:14:06;;;;;;;0.00;0.00;;;15.70;99.90;;;;;;4982512;28;20033;-86
2022/07/09 03:16:32;;;;;;;0.22;0.22;;;15.60;99.90;;;;;;4998967;28;20100;-86
2022/07/09 03:18:57;;;;;;;0.25;0.25;;;15.60;99.90;;;;;;4998786;28;20041;-86
2022/07/09 03:21:23;;;;;;;0.40;0.40;;;15.60;99.90;;;;;;4999068;28;20049;-86
2022/07/09 03:23:49;;;;;;;0.10;0.10;;;15.70;99.90;;;;;;5015191;28;20590;-86
2022/07/09 03:26:14;;;;;;;0.08;0.08;;;15.70;99.90;;;;;;5014820;28;20041;-86
2022/07/09 03:28:40;;;;;;;0.20;0.20;;;15.80;99.90;;;;;;4998755;28;20094;-86
2022/07/09 03:31:06;;;;;;;0.35;0.35;;;15.80;99.90;;;;;;4998671;28;20037;-86
2022/07/09 03:33:31;;;;;;;0.00;0.00;;;15.80;99.90;;;;;;4982449;28;20399;-86
2022/07/09 03:35:58;;;;;;;0.00;0.00;;;15.80;99.90;;;;;;4969576;28;20044;-86
2022/07/09 03:38:24;;;;;;;0.00;0.00;;;15.70;99.90;;;;;;5018754;28;20076;-86
2022/07/09 03:40:50;;;;;;;0.10;0.10;;;15.70;99.90;;;;;;5002192;28;20041;-86
2022/07/09 03:43:16;;;;;;;0.10;0.10;;;15.70;99.90;;;;;;5018175;28;20116;-91
2022/07/09 03:45:42;;;;;;;0.20;0.10;;;15.60;99.90;;;;;;5002610;28;20168;-91
2022/07/09 03:48:07;;;;;;;0.00;0.00;;;15.50;99.90;;;;;;5002098;28;20041;-91
2022/07/09 03:50:33;;;;;;;0.08;0.08;;;15.50;99.90;;;;;;4969948;28;20041;-92
2022/07/09 03:52:59;;;;;;;0.10;0.10;;;15.60;99.90;;;;;;5001639;28;20029;-91
2022/07/09 03:55:24;;;;;;;0.17;0.17;;;15.60;99.90;;;;;;4985967;28;20073;-91
2022/07/09 03:57:51;;;;;;;0.43;0.30;;;15.60;99.90;;;;;;4985540;28;20038;-91
2022/07/09 04:00:16;;;;;;;0.10;0.10;;;15.70;99.90;;;;;;5017928;28;20049;-91
2022/07/09 04:02:43;;;;;;;0.10;0.10;;;15.70;99.90;;;;;;4985278;28;20395;-91
2022/07/09 04:05:08;;;;;;;0.10;0.10;;;15.80;99.90;;;;;;5001952;28;20064;-91
2022/07/09 04:07:35;;;;;;;0.10;0.10;;;15.80;99.90;;;;;;4985450;28;20041;-91
2022/07/09 04:10:00;;;;;;;0.38;0.35;;;15.80;99.90;;;;;;4969501;28;20072;-91
2022/07/09 04:12:26;;;;;;;0.20;0.20;;;15.80;99.90;;;;;;5001617;28;20033;-91
2022/07/09 04:14:52;;;;;;;0.47;0.47;;;15.90;99.90;;;;;;5016670;28;20045;-90
2022/07/09 04:17:17;;;;;;;0.38;0.38;;;15.80;99.90;;;;;;5029669;28;20073;-87
2022/07/09 04:19:43;;;;;;;0.10;0.10;;;15.90;99.90;;;;;;4969318;28;20041;-88
2022/07/09 04:22:09;;;;;;;0.00;0.00;;;15.90;99.90;;;;;;4975937;28;20077;-87
2022/07/09 04:24:35;;;;;;;0.10;0.10;;;15.90;99.90;;;;;;4992617;28;20042;-88
2022/07/09 04:27:00;;;;;;;0.47;0.22;;;16.00;99.90;;;;;;5017374;28;20121;-87
2022/07/09 04:29:26;;;;;;;0.10;0.10;;;16.00;99.90;;;;;;5017401;28;20041;-87
2022/07/09 04:31:52;;;;;;;0.00;0.00;;;16.00;99.90;;;;;;4984352;28;20068;-87
2022/07/09 04:34:17;;;;;;;0.00;0.00;;;16.10;99.90;;;;;;5004402;28;20029;-87
2022/07/09 04:36:44;;;;;;;0.08;0.08;;;16.00;99.90;;;;;;4984808;28;20183;-87
2022/07/09 04:39:10;;;;;;;0.10;0.10;;;16.00;99.90;;;;;;5020123;28;20399;-87
2022/07/09 04:41:36;;;;;;;0.32;0.32;;;16.10;99.90;;;;;;5004445;28;20045;-87
2022/07/09 04:44:02;;;;;;;0.57;0.57;;;16.20;99.90;;;;;;5029981;28;20041;-87
2022/07/09 04:46:30;;;;;;;0.85;0.20;;;16.20;99.90;;;;;;5016424;28;20049;-87
2022/07/09 04:48:56;;;;;;;0.05;0.05;;;16.30;99.90;;;;;;5000517;28;20077;-87
2022/07/09 04:51:22;;;;;;;0.30;0.30;;;16.40;99.90;;;;;;4985186;28;20553;-89
2022/07/09 04:53:47;;;;;;;0.10;0.10;;;16.40;99.90;;;;;;5016742;28;20037;-90
2022/07/09 04:56:14;;;;;;;0.40;0.10;;;16.50;99.90;;;;;;4973526;28;20037;-89
2022/07/09 04:58:51;;;;;;;0.17;0.17;;;16.60;99.90;;;;;;5009594;28;20464;-89
2022/07/09 05:01:21;;;;;;;0.20;0.20;;;16.60;99.90;;;;;;4995279;28;20052;-90
2022/07/09 05:03:47;;;;;;;0.05;0.05;;;16.60;99.90;;;;;;5000365;28;20116;-89
2022/07/09 05:06:17;;;;;;;0.00;0.00;;;16.70;99.90;;;;;;5016614;28;20064;-87
2022/07/09 05:08:43;;;;;;;0.10;0.10;;;16.80;99.90;;;;;;5016525;28;20037;-87
2022/07/09 05:11:10;;;;;;;0.10;0.10;;;16.90;99.90;;;;;;5000020;28;20129;-87
2022/07/09 05:13:36;;;;;;;0.32;0.32;;;17.10;99.90;;;;;;5016573;28;20041;-87
2022/07/09 05:16:03;;;;;;;0.30;0.30;;;17.20;99.90;;;;;;5000265;28;20029;-87
2022/07/09 05:18:30;;;;;;;0.05;0.05;;;17.30;99.90;;;;;;5016675;28;20516;-87
2022/07/09 05:20:56;;;;;;;0.13;0.10;;;17.40;99.90;;;;;;4984313;28;20498;-87
2022/07/09 05:23:22;;;;;;;0.10;0.10;;;17.50;99.90;;;;;;4984447;28;20095;-86
2022/07/09 05:25:48;;;;;;;0.20;0.20;;;17.50;99.90;;;;;;5000360;28;20053;-86
2022/07/09 05:28:14;;;;;;;0.10;0.10;;;17.60;99.90;;;;;;5016288;28;20045;-86
2022/07/09 05:30:39;;;;;;;0.05;0.05;;;17.70;99.90;;;;;;5000441;28;20176;-86
2022/07/09 05:33:06;;;;;;;0.17;0.17;;;17.70;99.90;;;;;;5000117;28;20399;-86
2022/07/09 05:35:31;;;;;;;0.40;0.40;;;17.80;99.90;;;;;;5033380;28;20391;-86
2022/07/09 05:37:57;;;;;;;0.10;0.10;;;17.80;99.90;;;;;;4992285;28;20037;-86
2022/07/09 05:40:23;;;;;;;0.10;0.10;;;17.80;99.90;;;;;;4980470;28;20064;-90
2022/07/09 05:42:49;;;;;;;0.57;0.57;;;17.80;99.90;;;;;;4980403;28;20042;-90
2022/07/09 05:45:14;;;;;;;0.20;0.20;;;17.80;99.90;;;;;;4996735;28;20133;-90
2022/07/09 05:47:40;;;;;;;0.10;0.10;;;17.80;99.90;;;;;;4980644;28;20048;-89
2022/07/09 05:50:06;;;;;;;0.00;0.00;;;17.90;99.90;;;;;;5014091;28;20073;-90
2022/07/09 05:52:32;;;;;;;0.03;0.03;;;17.90;99.90;;;;;;5016518;28;20041;-90
2022/07/09 05:54:58;;;;;;;0.20;0.20;;;17.90;99.90;;;;;;4983818;28;20396;-90
2022/07/09 05:57:24;;;;;;;0.20;0.20;;;;;;;;;;4999411;28;20494;-90
2022/07/09 05:59:50;;;;;;;0.20;0.13;;;18.00;99.90;;;;;;4998995;28;20144;-90
2022/07/09 06:02:16;;;;;;;0.40;0.20;;;18.10;99.90;;;;;;4999947;28;20081;-90
2022/07/09 06:04:42;;;;;;;0.22;0.20;;;18.20;99.90;;;;;;5016226;28;20513;-91
2022/07/09 06:07:09;;;;;;;0.10;0.10;;;18.20;99.90;;;;;;4983527;28;20092;-90
2022/07/09 06:09:34;;;;;;;0.30;0.30;;;18.20;99.90;;;;;;4999298;28;20046;-89
2022/07/09 06:12:00;;;;;;;0.00;0.00;;;18.30;99.90;;;;;;5002061;28;20038;-89
2022/07/09 06:14:26;;;;;;;0.35;0.20;;;18.30;99.90;;;;;;5039508;22;20059;-87
2022/07/09 06:16:54;;;;;;;0.10;0.10;;;18.30;99.90;;;;;;5049344;28;20514;-87
2022/07/09 06:19:19;;;;;;;0.10;0.10;;;18.30;99.90;;;;;;5051840;28;20040;-86
2022/07/09 06:21:45;;;;;;;0.17;0.17;;;18.40;99.90;;;;;;5018990;28;20048;-87
2022/07/09 06:24:11;;;;;;;0.00;0.00;;;18.40;99.90;;;;;;5014613;28;20042;-87
2022/07/09 06:26:40;;;;;;;0.00;0.00;;;18.40;99.90;;;;;;5016329;28;20092;-87
2022/07/09 06:29:05;;;;;;;0.40;0.32;;;18.40;99.90;;;;;;5019281;28;20091;-87
2022/07/09 06:31:31;;;;;;;0.10;0.10;;;18.50;99.90;;;;;;5016169;28;20041;-85
2022/07/09 06:33:58;;;;;;;0.13;0.13;;;18.50;99.90;;;;;;5032386;28;20128;-85
2022/07/09 06:36:24;;;;;;;0.00;0.00;;;18.50;99.90;;;;;;5034284;28;20487;-85
2022/07/09 06:41:34;;;;;;;0.00;0.00;;;18.70;99.90;;;;;;5051782;28;20049;-85
2022/07/09 06:43:59;;;;;;;0.20;0.20;;;18.70;99.90;;;;;;5035201;28;20045;-85
2022/07/09 06:46:26;;;;;;;0.00;0.00;;;18.80;99.90;;;;;;5051955;28;20044;-90
2022/07/09 06:48:52;;;;;;;0.20;0.20;;;18.80;99.90;;;;;;5019163;28;20049;-90
2022/07/09 06:51:17;;;;;;;0.10;0.10;;;19.00;99.90;;;;;;5051733;28;20041;-90
2022/07/09 06:53:43;;;;;;;0.10;0.10;;;19.10;99.90;;;;;;5035168;28;20033;-90
2022/07/09 06:56:09;;;;;;;0.17;0.10;;;19.20;99.90;;;;;;5017436;28;20071;-90
2022/07/09 06:58:34;;;;;;;0.10;0.10;;;19.30;99.90;;;;;;5052956;28;20414;-86
2022/07/09 07:01:00;;;;;;;0.10;0.10;;;19.30;99.90;;;;;;5018471;28;20086;-87
2022/07/09 07:03:26;;;;;;;0.40;0.40;;;19.30;99.90;;;;;;5041361;28;20045;-87
2022/07/09 07:05:51;;;;;;;0.20;0.17;;;19.30;99.90;;;;;;5020679;28;20480;-86
2022/07/09 07:08:18;;;;;;;0.10;0.10;;;19.30;99.90;;;;;;5037749;28;20124;-86
2022/07/09 07:10:44;;;;;;;0.10;0.10;;;19.30;99.90;;;;;;5026800;28;20040;-86
2022/07/09 07:13:10;;;;;;;0.68;0.68;;;19.30;99.90;;;;;;5026988;28;20040;-86
2022/07/09 07:15:36;;;;;;;0.00;0.00;;;19.30;99.90;;;;;;5024970;28;20096;-86
2022/07/09 07:18:02;;;;;;;0.10;0.10;;;19.30;99.90;;;;;;5028553;28;20040;-86
2022/07/09 07:20:31;;;;;;;0.13;0.13;;;19.30;99.90;;;;;;5044370;28;20046;-87
2022/07/09 07:22:57;;;;;;;0.30;0.20;;;19.30;99.90;;;;;;5048356;28;20397;-86
2022/07/09 07:25:24;;;;;;;0.10;0.10;;;19.50;99.90;;;;;;5020201;28;20040;-85
2022/07/09 07:27:50;;;;;;;0.00;0.00;;;19.60;99.90;;;;;;5030033;28;20121;-86
2022/07/09 07:30:16;;;;;;;0.10;0.10;;;19.70;99.90;;;;;;5029190;28;20120;-86
2022/07/09 07:32:41;;;;;;;0.10;0.10;;;19.90;99.90;;;;;;5028954;28;20028;-86
2022/07/09 07:35:07;;;;;;;0.15;0.15;;;20.10;99.90;;;;;;5011675;28;20136;-85
2022/07/09 07:37:39;;;;;;;0.20;0.20;;;20.30;99.90;;;;;;5028011;28;20524;-87
2022/07/09 07:40:08;;;;;;;0.00;0.00;;;20.60;99.90;;;;;;5027357;28;20680;-86
2022/07/09 07:42:34;;;;;;;0.00;0.00;;;21.50;99.90;;;;;;5026510;28;20056;-87
2022/07/09 07:45:00;;;;;;;1.88;0.47;;;22.70;99.90;;;;;;5044302;28;20036;-87
2022/07/09 07:47:25;;;;;;;0.13;0.13;;;24.30;99.90;;;;;;5006259;28;20040;-87
2022/07/09 07:49:51;;;;;;;0.20;0.20;;;25.20;99.90;;;;;;5028743;28;20068;-87
2022/07/09 07:52:18;;;;;;;0.30;0.20;;;25.40;99.90;;;;;;5054498;28;20044;-87
2022/07/09 07:54:44;;;;;;;0.00;0.00;;;25.50;99.90;;;;;;5037946;28;20048;-86
2022/07/09 07:57:09;;;;;;;0.05;0.05;;;25.50;99.90;;;;;;5028187;28;20029;-86
2022/07/09 07:59:35;;;;;;;0.10;0.10;;;25.20;99.90;;;;;;5037544;28;20036;-86
2022/07/09 08:02:01;;;;;;;0.13;0.13;;;24.60;99.90;;;;;;5037452;28;20051;-86
2022/07/09 08:04:26;;;;;;;0.10;0.10;;;24.60;99.90;;;;;;5037452;28;20056;-86
2022/07/09 08:06:52;;;;;;;0.10;0.10;;;24.10;99.90;;;;;;5020825;28;20146;-86
2022/07/09 08:09:18;;;;;;;0.30;0.30;;;23.90;99.90;;;;;;5053875;28;20048;-86
2022/07/09 08:11:56;;;;;;;0.08;0.08;;;23.60;99.90;;;;;;5019167;28;20495;-88
2022/07/09 08:14:21;;;;;;;0.20;0.20;;;23.30;99.90;;;;;;5036371;28;20200;-87
2022/07/09 08:16:47;;;;;;;0.20;0.20;;;24.40;99.90;;;;;;5050774;28;20471;-87
2022/07/09 08:19:14;;;;;;;0.10;0.10;;;26.10;99.90;;;;;;5003938;28;20047;-87
2022/07/09 08:21:40;;;;;;;0.10;0.10;;;27.00;99.90;;;;;;5020485;28;20045;-87
2022/07/09 08:24:06;;;;;;;0.30;0.30;;;26.60;99.90;;;;;;5021332;28;20398;-87
2022/07/09 08:26:31;;;;;;;0.10;0.10;;;26.70;99.90;;;;;;5021167;28;20094;-88
2022/07/09 08:28:57;;;;;;;0.10;0.10;;;27.70;99.90;;;;;;5021063;28;20048;-88
2022/07/09 08:31:23;;;;;;;0.25;0.25;;;27.70;99.90;;;;;;5020815;28;20045;-87
2022/07/09 08:33:50;;;;;;;0.85;0.77;;;26.90;99.30;;;;;;5053971;28;20041;-88
2022/07/09 08:36:16;;;;;;;0.20;0.20;;;26.10;99.90;;;;;;5019470;28;20127;-87
2022/07/09 08:38:43;;;;;;;0.20;0.20;;;26.40;99.90;;;;;;5037234;28;20044;-87
2022/07/09 08:41:09;;;;;;;0.32;0.32;;;26.10;99.90;;;;;;5037614;28;20041;-87
2022/07/09 08:43:38;;;;;;;0.30;0.30;;;26.80;99.90;;;;;;5037264;28;20544;-89
2022/07/09 08:46:05;;;;;;;0.30;0.30;;;27.50;99.90;;;;;;5037151;28;20471;-90
2022/07/09 08:48:36;;;;;;;0.10;0.10;;;27.70;99.50;;;;;;5053747;28;20471;-89
2022/07/09 08:51:03;;;;;;;0.10;0.10;;;28.30;99.60;;;;;;5037292;28;20147;-89
2022/07/09 08:53:29;;;;;;;0.10;0.10;;;27.80;98.50;;;;;;5037008;28;20032;-89
2022/07/09 08:55:56;;;;;;;0.00;0.00;;;27.40;98.30;;;;;;5036917;28;20501;-89
2022/07/09 08:58:23;;;;;;;0.05;0.05;;;27.70;99.90;;;;;;5036792;28;20041;-89
2022/07/09 09:00:50;;;;;;;0.20;0.20;;;29.40;99.30;;;;;;5037779;28;20037;-88
2022/07/09 09:03:17;;;;;;;0.00;0.00;;;29.00;97.20;;;;;;5052994;28;20064;-89
2022/07/09 09:05:44;;;;;;;0.10;0.10;;;29.70;96.70;;;;;;5036761;28;20032;-89
2022/07/09 09:08:22;;;;;;;0.10;0.10;;;30.20;95.20;;;;;;5020411;28;20040;-89
2022/07/09 09:10:48;;;;;;;0.10;0.10;;;30.40;95.30;;;;;;5020497;28;20037;-89
2022/07/09 09:13:16;;;;;;;0.13;0.13;;;30.20;95.00;;;;;;5020392;28;20098;-88
2022/07/09 09:15:43;;;;;;;0.10;0.10;;;28.80;94.00;;;;;;5052874;28;20106;-89
2022/07/09 09:18:09;;;;;;;0.17;0.17;;;27.60;94.20;;;;;;5036400;28;20095;-89
2022/07/09 09:20:36;;;;;;;0.10;0.10;;;26.70;96.00;;;;;;5036889;28;20457;-89
2022/07/09 09:23:04;;;;;;;0.10;0.10;;;26.30;96.10;;;;;;5036585;28;20115;-89
2022/07/09 09:25:30;;;;;;;0.30;0.30;;;26.40;96.50;;;;;;5053067;28;20494;-89
2022/07/09 09:27:58;;;;;;;2.63;0.95;;;27.00;97.20;;;;;;5052957;28;20537;-89
2022/07/09 09:30:25;;;;;;;0.10;0.10;;;27.40;97.10;;;;;;5052934;28;20433;-88
2022/07/09 09:33:03;;;;;;;0.20;0.20;;;27.60;95.80;;;;;;5034983;28;20041;-92
2022/07/09 09:35:41;;;;;;;0.25;0.20;;;27.40;95.20;;;;;;5052237;28;20052;-92
2022/07/09 09:38:07;;;;;;;0.00;0.00;;;26.70;96.30;;;;;;5017353;28;20037;-91
2022/07/09 09:40:35;;;;;;;0.10;0.10;;;26.20;95.90;;;;;;5033596;28;20396;-90
2022/07/09 09:43:02;;;;;;;0.10;0.10;;;26.90;96.50;;;;;;5016703;28;20484;-91
2022/07/09 09:45:28;;;;;;;0.00;0.00;;;28.00;95.50;;;;;;5036973;28;20044;-91
2022/07/09 09:47:54;;;;;;;0.90;0.88;;;28.80;95.80;;;;;;5036362;28;20052;-91
2022/07/09 09:50:25;;;;;;;0.28;0.28;;;28.80;94.70;;;;;;5035820;28;20110;-89
2022/07/09 09:52:52;;;;;;;2.35;0.32;;;28.10;95.00;;;;;;5052374;28;20066;-90
2022/07/09 09:55:19;;;;;;;0.70;0.70;;;27.50;95.20;;;;;;5035953;28;20037;-89
2022/07/09 09:57:45;;;;;;;0.25;0.25;;;27.80;95.80;;;;;;5035782;28;20114;-89
2022/07/09 10:00:12;;;;;;;0.20;0.20;;;28.40;95.70;;;;;;5003060;28;20076;-88
2022/07/09 10:02:50;;;;;;;0.10;0.10;;;28.30;94.90;;;;;;5019964;28;20449;-89
2022/07/09 10:05:15;;;;;;;0.10;0.10;;;27.70;94.30;;;;;;5036036;28;20561;-89
2022/07/09 10:07:43;;;;;;;0.10;0.10;;;27.50;94.60;;;;;;5019248;28;20127;-86
2022/07/09 10:10:16;;;;;;;0.10;0.10;;;27.10;94.80;;;;;;5019268;28;20044;-86
2022/07/09 10:12:42;;;;;;;0.25;0.25;;;27.20;95.50;;;;;;5052325;28;20125;-86
2022/07/09 10:15:21;;;;;;;0.47;0.47;;;27.30;95.20;;;;;;5018970;28;20084;-86
2022/07/09 10:17:47;;;;;;;0.08;0.08;;;27.20;95.50;;;;;;5052156;28;20116;-86
2022/07/09 10:20:13;;;;;;;0.10;0.10;;;26.80;95.40;;;;;;5034975;28;20490;-86
2022/07/09 10:22:41;;;;;;;22.15;1.55;;;26.30;96.10;;;;;;5018923;28;20048;-86
2022/07/09 10:25:11;;;;;;;0.22;0.22;;;25.90;96.50;;;;;;5052378;28;20037;-89
2022/07/09 10:27:45;;;;;;;0.10;0.10;;;26.10;97.00;;;;;;5019208;28;20041;-88
2022/07/09 10:30:31;;;;;;;0.08;0.08;;;26.40;97.50;;;;;;5035430;28;20395;-88
2022/07/09 10:33:22;;;;;;;0.10;0.10;;;26.80;96.80;;;;;;5051614;28;20044;-87
2022/07/09 10:35:52;;;;;;;0.05;0.05;;;26.80;96.40;;;;;;5050976;28;20037;-88
2022/07/09 10:38:21;;;;;;;0.10;0.10;;;26.20;96.00;;;;;;5034987;28;20045;-88
2022/07/09 10:40:55;;;;;;;0.20;0.20;;;25.60;96.60;;;;;;5032251;28;20123;-87
2022/07/09 10:43:36;;;;;;;0.43;0.17;;;24.90;97.40;;;;;;5049195;28;20099;-86
2022/07/09 10:46:10;;;;;;;0.10;0.10;;;24.60;98.10;;;;;;5039117;28;20388;-87
2022/07/09 10:48:36;;;;;;;0.10;0.10;;;24.30;97.60;;;;;;5039062;28;20057;-87
2022/07/09 10:51:02;;;;;;;0.30;0.30;;;23.70;97.60;;;;;;5039089;28;20043;-86
2022/07/09 10:53:29;;;;;;;0.08;0.08;;;23.60;98.10;;;;;;5055773;28;20120;-86
2022/07/09 10:55:55;;;;;;;0.10;0.10;;;23.40;98.90;;;;;;5015503;28;20069;-86
2022/07/09 10:58:23;;;;;;;0.10;0.10;;;23.30;98.60;;;;;;5019368;28;20493;-86
2022/07/09 11:00:57;;;;;;;0.50;0.50;;;23.30;98.50;;;;;;5035774;28;20120;-86
2022/07/09 11:03:27;;;;;;;0.20;0.20;;;23.80;98.90;;;;;;5024706;28;20072;-87
2022/07/09 11:05:53;;;;;;;0.52;0.40;;;24.80;98.20;;;;;;5055640;28;20045;-86
2022/07/09 11:08:18;;;;;;;0.85;0.65;;;25.80;97.10;;;;;;5017463;28;20091;-86
2022/07/09 11:10:44;;;;;;;0.40;0.40;;;26.50;96.10;;;;;;5038184;28;20045;-86
2022/07/09 11:13:10;;;;;;;0.20;0.20;;;27.20;95.70;;;;;;5055550;28;20479;-87
2022/07/09 11:15:37;;;;;;;0.45;0.15;;;28.10;95.10;;;;;;5055097;28;20049;-87
2022/07/09 11:18:06;;;;;;;0.63;0.57;;;28.90;93.00;;;;;;5055572;28;20657;-86
2022/07/09 11:20:38;;;;;;;0.60;0.60;;;29.50;92.30;;;;;;5055252;28;20483;-86
2022/07/09 11:23:04;;;;;;;2.28;1.52;;;29.80;91.00;;;;;;5038598;28;20052;-87
2022/07/09 11:25:29;;;;;;;0.10;0.10;;;29.80;90.50;;;;;;5038926;28;20044;-86
2022/07/09 11:27:59;;;;;;;0.13;0.13;;;30.10;88.70;;;;;;5021759;28;20036;-86
2022/07/09 11:30:27;;;;;;;0.13;0.13;;;30.40;89.80;;;;;;5054978;28;20072;-86
2022/07/09 11:32:53;;;;;;;1.80;1.70;;;30.60;87.20;;;;;;5038576;28;20043;-86
2022/07/09 11:35:33;;;;;;;0.30;0.30;;;30.30;86.70;;;;;;5038068;28;20052;-86
2022/07/09 11:38:01;;;;;;;1.30;0.52;;;30.20;85.50;;;;;;5035372;28;20077;-86
2022/07/09 11:40:28;;;;;;;0.10;0.10;;;30.40;85.80;;;;;;5035167;28;20113;-86
2022/07/09 11:42:54;;;;;;;0.10;0.10;;;30.30;82.90;;;;;;5033979;28;20037;-86
2022/07/09 11:45:25;;;;;;;0.28;0.28;;;30.40;84.30;;;;;;5037794;28;20489;-86
2022/07/09 11:48:05;;;;;;;0.00;0.00;;;29.70;81.80;;;;;;5021903;28;20483;-89
2022/07/09 11:50:32;;;;;;;0.10;0.10;;;29.30;83.10;;;;;;5054628;28;20430;-89
2022/07/09 11:52:58;;;;;;;0.10;0.10;;;29.30;82.20;;;;;;5037936;28;20043;-91
2022/07/09 11:55:31;;;;;;;0.30;0.30;;;29.60;83.00;;;;;;5053800;28;20071;-90
2022/07/09 11:57:59;;;;;;;0.10;0.10;;;30.00;82.50;;;;;;5037146;28;20033;-90
2022/07/09 12:00:28;;;;;;;0.13;0.13;;;30.40;81.50;;;;;;5037788;28;20044;-90
2022/07/09 12:02:55;;;;;;;4.07;1.13;;;30.50;80.90;;;;;;5055011;28;20040;-89
2022/07/09 12:05:39;;;;;;;0.10;0.10;;;30.60;81.50;;;;;;5038257;28;20123;-88
2022/07/09 12:08:07;;;;;;;0.08;0.08;;;30.60;78.60;;;;;;5038019;28;20059;-89
2022/07/09 12:10:37;;;;;;;0.10;0.10;;;30.60;78.30;;;;;;5054801;28;20037;-89
2022/07/09 12:13:04;;;;;;;0.10;0.08;;;30.50;76.80;;;;;;5037552;28;20052;-88
2022/07/09 12:15:30;;;;;;;0.35;0.32;;;30.10;76.90;;;;;;5036117;28;20056;-89
2022/07/09 12:17:58;;;;;;;0.10;0.10;;;30.10;78.40;;;;;;5037969;28;20044;-88
2022/07/09 12:20:28;;;;;;;0.10;0.10;;;30.10;78.90;;;;;;5037832;28;20090;-89
2022/07/09 12:22:54;;;;;;;0.30;0.30;;;29.90;78.40;;;;;;5037865;28;20515;-88
2022/07/09 12:25:20;;;;;;;0.10;0.10;;;29.60;78.40;;;;;;5037108;28;20130;-89
2022/07/09 12:27:47;;;;;;;0.10;0.10;;;29.70;77.90;;;;;;5038248;28;20398;-89
2022/07/09 12:30:13;;;;;;;0.00;0.00;;;29.70;77.30;;;;;;5045286;22;20098;-91
2022/07/09 12:32:40;;;;;;;0.00;0.00;;;29.90;78.10;;;;;;5074423;28;20553;-90
2022/07/09 12:35:07;;;;;;;0.10;0.10;;;30.10;78.00;;;;;;5037610;28;20118;-91
2022/07/09 12:37:36;;;;;;;0.10;0.10;;;30.30;78.10;;;;;;5071651;28;20454;-87
2022/07/09 12:40:03;;;;;;;0.10;0.10;;;30.00;78.00;;;;;;5057885;28;20086;-88
2022/07/09 12:42:29;;;;;;;0.00;0.00;;;29.40;77.00;;;;;;5057122;28;20124;-87
2022/07/09 12:44:55;;;;;;;0.17;0.17;;;28.90;78.50;;;;;;5057118;28;20127;-87
2022/07/09 12:47:21;;;;;;;0.03;0.03;;;28.60;78.60;;;;;;5073395;28;20487;-88
2022/07/09 12:49:46;;;;;;;0.08;0.08;;;28.20;78.40;;;;;;5073495;28;20036;-88